Time;durP1;ratioP1;P1;durP2;ratioP2;P2;SDS_P1;SDS_P2;PMS_P1;PMS_P2;Temp;Humidity;BMP_temperature;BMP_pressure;BME280_temperature;BME280_humidity;BME280_pressure;Samples;Min_cycle;Max_cycle;Signal;HPM_P1;HPM_P2
2023/08/13 00:00:26;;;;;;;3.77;3.40;;;19.10;99.90;;;;;;5052305;28;20545;-51
2023/08/13 00:02:53;;;;;;;3.80;3.50;;;19.10;99.90;;;;;;5054458;28;20527;-50
2023/08/13 00:05:20;;;;;;;6.20;4.10;;;19.10;99.90;;;;;;5052110;28;20520;-51
2023/08/13 00:07:46;;;;;;;7.20;3.77;;;19.10;99.90;;;;;;5054309;28;20469;-51
2023/08/13 00:10:13;;;;;;;7.17;4.37;;;19.10;99.90;;;;;;5054192;28;20837;-51
2023/08/13 00:12:39;;;;;;;3.40;3.10;;;19.00;99.90;;;;;;5051491;28;20492;-52
2023/08/13 00:15:07;;;;;;;12.03;4.37;;;19.00;99.90;;;;;;5052811;28;20485;-50
2023/08/13 00:17:35;;;;;;;3.13;2.90;;;19.00;99.90;;;;;;5053026;28;20541;-52
2023/08/13 00:20:01;;;;;;;6.53;3.27;;;18.90;99.90;;;;;;5052314;28;20474;-51
2023/08/13 00:22:28;;;;;;;3.90;2.90;;;18.90;99.90;;;;;;5053869;28;20486;-50
2023/08/13 00:24:55;;;;;;;3.90;3.10;;;18.90;99.90;;;;;;5044473;28;20513;-50
2023/08/13 00:27:21;;;;;;;3.70;3.17;;;18.80;99.90;;;;;;5052418;28;20469;-50
2023/08/13 00:29:48;;;;;;;3.40;2.90;;;18.80;99.90;;;;;;5052505;28;20536;-51
2023/08/13 00:32:14;;;;;;;9.37;2.77;;;18.80;99.90;;;;;;5053840;28;20513;-51
2023/08/13 00:34:42;;;;;;;5.67;3.27;;;18.70;99.90;;;;;;5044803;28;20891;-50
2023/08/13 00:37:09;;;;;;;3.77;2.80;;;18.70;99.90;;;;;;5052820;28;21054;-51
2023/08/13 00:39:35;;;;;;;3.97;2.80;;;18.70;99.90;;;;;;5051286;28;20481;-51
2023/08/13 00:42:02;;;;;;;4.00;3.10;;;18.60;99.90;;;;;;5053018;28;20557;-51
2023/08/13 00:44:28;;;;;;;7.77;3.77;;;18.60;99.90;;;;;;5053078;28;20516;-50
2023/08/13 00:46:55;;;;;;;3.40;2.70;;;18.50;99.90;;;;;;5052679;28;20905;-51
2023/08/13 00:49:23;;;;;;;4.00;3.40;;;18.50;99.90;;;;;;5043334;28;20531;-50
2023/08/13 00:51:51;;;;;;;3.23;2.90;;;18.50;99.90;;;;;;5052538;28;20501;-49
2023/08/13 00:54:18;;;;;;;3.53;2.80;;;18.40;99.90;;;;;;5051366;28;20490;-50
2023/08/13 00:56:46;;;;;;;3.47;3.17;;;18.40;99.90;;;;;;5052189;28;20482;-51
2023/08/13 00:59:13;;;;;;;2.50;2.40;;;18.30;99.90;;;;;;5043575;28;20497;-50
2023/08/13 01:01:39;;;;;;;2.80;2.43;;;18.30;99.90;;;;;;5051815;28;20503;-52
2023/08/13 01:04:06;;;;;;;2.70;2.40;;;18.30;99.90;;;;;;5045086;28;21033;-50
2023/08/13 01:06:43;;;;;;;2.63;2.33;;;18.20;99.90;;;;;;5052177;28;20493;-51
2023/08/13 01:09:17;;;;;;;3.40;2.50;;;18.10;99.90;;;;;;5044021;28;20533;-49
2023/08/13 01:11:52;;;;;;;4.77;2.13;;;18.10;99.90;;;;;;5048669;28;20496;-50
2023/08/13 01:14:27;;;;;;;4.30;2.67;;;18.10;99.90;;;;;;5051828;28;20477;-50
2023/08/13 01:16:56;;;;;;;4.37;2.47;;;18.10;99.90;;;;;;5052835;28;20502;-52
2023/08/13 01:19:24;;;;;;;3.00;2.70;;;18.00;99.90;;;;;;5052240;28;20473;-50
2023/08/13 01:21:53;;;;;;;3.90;2.60;;;18.00;99.90;;;;;;5050509;28;20971;-50
2023/08/13 01:24:21;;;;;;;3.07;2.77;;;18.00;99.90;;;;;;5035894;28;21071;-52
2023/08/13 01:26:52;;;;;;;3.30;2.47;;;17.90;99.90;;;;;;5043686;28;20518;-51
2023/08/13 01:29:26;;;;;;;5.77;2.70;;;17.90;99.90;;;;;;5051202;28;20952;-51
2023/08/13 01:31:57;;;;;;;2.97;2.77;;;17.90;99.90;;;;;;5051265;28;20524;-51
2023/08/13 01:34:24;;;;;;;7.23;2.67;;;17.80;99.90;;;;;;5051219;28;20482;-50
2023/08/13 01:36:50;;;;;;;2.90;2.70;;;17.80;99.90;;;;;;5049155;28;20581;-52
2023/08/13 01:39:17;;;;;;;2.50;2.17;;;17.70;99.90;;;;;;5051997;28;20485;-51
2023/08/13 01:41:53;;;;;;;3.10;2.63;;;17.70;99.90;;;;;;5052823;28;20538;-51
2023/08/13 01:44:20;;;;;;;4.33;2.70;;;17.70;99.90;;;;;;5051926;28;20531;-51
2023/08/13 01:46:47;;;;;;;6.20;2.77;;;17.70;99.90;;;;;;5052590;28;20541;-51
2023/08/13 01:49:13;;;;;;;5.50;1.97;;;17.60;99.90;;;;;;5050362;28;20549;-51
2023/08/13 01:51:40;;;;;;;25.63;2.60;;;17.60;99.90;;;;;;5051176;28;20489;-52
2023/08/13 01:54:07;;;;;;;2.77;2.57;;;17.50;99.90;;;;;;5051845;28;20525;-49
2023/08/13 01:56:34;;;;;;;10.03;3.00;;;17.50;99.90;;;;;;5043180;28;20561;-50
2023/08/13 01:59:01;;;;;;;3.53;2.23;;;17.50;99.90;;;;;;5051630;28;21392;-51
2023/08/13 02:01:28;;;;;;;3.70;2.40;;;17.50;99.90;;;;;;5046866;28;20497;-51
2023/08/13 02:03:55;;;;;;;5.03;2.80;;;17.60;99.90;;;;;;5047781;28;20512;-51
2023/08/13 02:06:22;;;;;;;2.80;2.57;;;17.60;99.90;;;;;;5051138;28;20588;-50
2023/08/13 02:08:48;;;;;;;2.70;2.50;;;17.60;99.90;;;;;;5052260;28;20449;-50
2023/08/13 02:11:15;;;;;;;3.87;2.33;;;17.60;99.90;;;;;;5050302;28;20561;-50
2023/08/13 02:13:41;;;;;;;5.63;2.43;;;17.60;99.90;;;;;;5049845;28;20525;-50
2023/08/13 02:16:09;;;;;;;2.10;2.00;;;17.60;99.90;;;;;;5050905;28;20481;-50
2023/08/13 02:18:35;;;;;;;3.10;2.80;;;17.60;99.90;;;;;;5049468;28;20911;-49
2023/08/13 02:21:03;;;;;;;7.53;2.47;;;17.60;99.90;;;;;;5049862;28;20516;-51
2023/08/13 02:23:29;;;;;;;5.23;2.83;;;17.60;99.90;;;;;;5050548;28;20561;-51
2023/08/13 02:25:56;;;;;;;3.10;2.90;;;17.50;99.90;;;;;;5048591;28;20516;-52
2023/08/13 02:28:22;;;;;;;3.60;2.90;;;17.50;99.90;;;;;;5045754;28;20559;-51
2023/08/13 02:30:50;;;;;;;3.63;2.20;;;17.50;99.90;;;;;;5049195;28;21034;-51
2023/08/13 02:33:18;;;;;;;2.90;2.30;;;17.50;99.90;;;;;;5049245;28;20545;-51
2023/08/13 02:35:45;;;;;;;3.10;2.57;;;17.40;99.90;;;;;;5050161;28;20561;-50
2023/08/13 02:38:11;;;;;;;9.57;2.67;;;17.30;99.90;;;;;;5051713;28;20517;-51
2023/08/13 02:40:38;;;;;;;3.00;2.10;;;17.30;99.90;;;;;;5051778;28;20473;-50
2023/08/13 02:43:05;;;;;;;2.60;2.40;;;17.30;99.90;;;;;;5050571;28;20544;-51
2023/08/13 02:45:31;;;;;;;5.40;2.30;;;17.20;99.90;;;;;;5048210;28;20561;-49
2023/08/13 02:47:58;;;;;;;2.77;2.57;;;17.20;99.90;;;;;;5051631;28;20521;-50
2023/08/13 02:50:26;;;;;;;2.67;2.47;;;17.10;99.90;;;;;;5050667;28;21019;-51
2023/08/13 02:52:52;;;;;;;7.57;3.30;;;17.10;99.90;;;;;;5050535;28;20541;-52
2023/08/13 02:55:19;;;;;;;6.40;2.80;;;17.00;99.90;;;;;;5050721;28;20575;-51
2023/08/13 02:57:45;;;;;;;3.60;3.30;;;17.00;99.90;;;;;;5042306;28;20482;-51
2023/08/13 03:00:13;;;;;;;2.90;2.70;;;17.00;99.90;;;;;;5048741;28;20607;-51
2023/08/13 03:02:39;;;;;;;6.97;2.50;;;17.00;99.90;;;;;;5049902;28;20537;-51
2023/08/13 03:05:06;;;;;;;6.47;2.87;;;16.90;99.90;;;;;;5042970;28;20556;-51
2023/08/13 03:07:34;;;;;;;2.60;2.43;;;16.80;99.90;;;;;;5047580;28;20548;-53
2023/08/13 03:10:00;;;;;;;3.90;3.50;;;16.70;99.90;;;;;;5046439;28;20623;-53
2023/08/13 03:12:27;;;;;;;3.17;2.87;;;16.80;99.90;;;;;;5049286;28;20537;-54
2023/08/13 03:14:54;;;;;;;4.97;2.90;;;16.70;99.90;;;;;;5049915;28;20548;-53
2023/08/13 03:17:20;;;;;;;5.00;2.70;;;16.70;99.90;;;;;;5045211;28;20552;-53
2023/08/13 03:19:47;;;;;;;3.60;2.83;;;16.60;99.90;;;;;;5051208;28;20451;-52
2023/08/13 03:22:13;;;;;;;3.43;2.60;;;16.60;99.90;;;;;;5047927;28;20520;-54
2023/08/13 03:24:41;;;;;;;2.63;2.43;;;16.50;99.90;;;;;;5049405;28;21099;-53
2023/08/13 03:27:07;;;;;;;5.20;2.87;;;16.50;99.90;;;;;;5043056;28;20500;-53
2023/08/13 03:29:34;;;;;;;4.37;2.80;;;16.50;99.90;;;;;;5050276;28;20902;-52
2023/08/13 03:32:01;;;;;;;4.03;2.93;;;16.50;99.90;;;;;;5042595;28;21771;-52
2023/08/13 03:34:27;;;;;;;3.83;2.57;;;16.40;99.90;;;;;;5048993;28;20544;-52
2023/08/13 03:36:54;;;;;;;3.90;2.83;;;16.40;99.90;;;;;;5049109;28;20572;-53
2023/08/13 03:39:20;;;;;;;2.90;2.70;;;16.30;99.90;;;;;;5050283;28;20450;-52
2023/08/13 03:41:48;;;;;;;4.57;3.27;;;16.30;99.90;;;;;;5051063;28;20480;-51
2023/08/13 03:44:14;;;;;;;3.30;3.00;;;16.30;99.90;;;;;;5049563;28;20576;-52
2023/08/13 03:46:41;;;;;;;9.80;2.93;;;16.30;99.90;;;;;;5050990;28;20553;-53
2023/08/13 03:49:07;;;;;;;2.70;2.50;;;16.30;99.90;;;;;;5046890;28;21042;-52
2023/08/13 03:51:34;;;;;;;2.60;2.40;;;16.20;99.90;;;;;;5048602;28;20498;-53
2023/08/13 03:54:00;;;;;;;5.97;2.90;;;16.30;99.90;;;;;;5053161;28;20749;-52
2023/08/13 03:56:27;;;;;;;6.13;2.50;;;16.30;99.90;;;;;;5045308;28;20562;-54
2023/08/13 03:58:55;;;;;;;4.67;3.10;;;16.20;99.90;;;;;;5053742;28;20497;-52
2023/08/13 04:01:21;;;;;;;3.37;2.63;;;16.20;99.90;;;;;;5054803;28;20541;-54
2023/08/13 04:03:48;;;;;;;5.00;3.43;;;16.20;99.90;;;;;;5051017;28;20592;-51
2023/08/13 04:06:14;;;;;;;3.40;3.10;;;16.20;99.90;;;;;;5053417;28;21220;-53
2023/08/13 04:08:41;;;;;;;6.70;3.70;;;16.20;99.90;;;;;;5053551;28;20462;-52
2023/08/13 04:11:07;;;;;;;4.10;3.30;;;16.30;99.90;;;;;;5054513;28;20521;-53
2023/08/13 04:13:34;;;;;;;4.20;3.90;;;16.30;99.90;;;;;;5045837;28;20486;-52
2023/08/13 04:16:02;;;;;;;5.87;3.67;;;16.20;99.90;;;;;;5052853;28;20594;-53
2023/08/13 04:18:29;;;;;;;7.20;3.50;;;16.30;99.90;;;;;;5053264;28;20544;-54
2023/08/13 04:20:55;;;;;;;5.20;3.57;;;16.30;99.90;;;;;;5052742;28;20557;-53
2023/08/13 04:23:22;;;;;;;3.57;3.27;;;16.30;99.90;;;;;;5053102;28;20541;-53
2023/08/13 04:25:48;;;;;;;3.13;2.80;;;16.30;99.90;;;;;;5052505;28;20481;-52
2023/08/13 04:28:15;;;;;;;6.00;3.37;;;16.40;99.90;;;;;;5040261;28;20553;-52
2023/08/13 04:30:41;;;;;;;5.55;3.05;;;16.40;99.90;;;;;;5049283;28;20535;-54
2023/08/13 04:33:09;;;;;;;3.33;3.07;;;16.40;99.90;;;;;;5053419;28;20227;-53
2023/08/13 04:35:36;;;;;;;4.20;3.07;;;16.40;99.90;;;;;;5051924;28;20477;-52
2023/08/13 04:38:02;;;;;;;11.33;3.60;;;16.40;99.90;;;;;;5053799;28;20521;-53
2023/08/13 04:40:29;;;;;;;5.87;3.13;;;16.50;99.90;;;;;;5044826;28;20486;-53
2023/08/13 04:42:55;;;;;;;5.93;2.80;;;16.50;99.90;;;;;;5052947;28;20553;-53
2023/08/13 04:45:22;;;;;;;3.27;3.07;;;16.60;99.90;;;;;;5048266;28;20551;-54
2023/08/13 04:47:48;;;;;;;8.07;3.40;;;16.60;99.90;;;;;;5045154;28;21028;-52
2023/08/13 04:50:16;;;;;;;3.93;3.70;;;16.70;99.90;;;;;;5051025;28;21011;-54
2023/08/13 04:52:43;;;;;;;6.47;3.47;;;16.70;99.90;;;;;;5051345;28;20493;-53
2023/08/13 04:55:10;;;;;;;3.90;3.60;;;16.70;99.90;;;;;;5045833;28;20458;-53
2023/08/13 04:57:37;;;;;;;5.90;3.20;;;16.80;99.90;;;;;;5051787;28;20992;-53
2023/08/13 05:00:04;;;;;;;5.37;3.87;;;16.80;99.90;;;;;;5051539;28;20545;-53
2023/08/13 05:02:30;;;;;;;4.43;3.23;;;16.90;99.90;;;;;;5053344;28;20816;-53
2023/08/13 05:04:57;;;;;;;9.30;3.33;;;17.00;99.90;;;;;;5050547;28;20568;-52
2023/08/13 05:07:25;;;;;;;6.67;3.00;;;17.10;99.90;;;;;;5053191;28;20488;-53
2023/08/13 05:09:51;;;;;;;4.30;2.87;;;17.10;99.90;;;;;;5052641;28;20544;-52
2023/08/13 05:12:18;;;;;;;11.20;3.57;;;17.10;99.90;;;;;;5052229;28;20549;-52
2023/08/13 05:14:44;;;;;;;3.93;3.07;;;17.10;99.90;;;;;;5046332;28;20939;-49
2023/08/13 05:17:18;;;;;;;12.70;3.23;;;17.10;99.90;;;;;;5052753;28;20512;-49
2023/08/13 05:19:45;;;;;;;4.93;2.83;;;17.20;99.90;;;;;;5052011;28;20454;-50
2023/08/13 05:22:11;;;;;;;8.07;3.10;;;17.20;99.90;;;;;;5052880;28;20530;-49
2023/08/13 05:24:39;;;;;;;5.63;2.40;;;17.20;99.90;;;;;;5052270;28;20927;-51
2023/08/13 05:27:06;;;;;;;10.17;2.80;;;17.20;99.90;;;;;;5052949;28;20549;-49
2023/08/13 05:29:32;;;;;;;6.00;3.03;;;17.20;99.90;;;;;;5052801;28;20520;-49
2023/08/13 05:31:59;;;;;;;4.33;2.70;;;17.20;99.90;;;;;;5052206;28;20446;-51
2023/08/13 05:34:25;;;;;;;8.30;2.80;;;17.20;99.90;;;;;;5050698;28;20462;-50
2023/08/13 05:36:52;;;;;;;4.97;2.80;;;17.20;99.90;;;;;;5051363;28;20520;-50
2023/08/13 05:39:19;;;;;;;5.33;2.70;;;17.30;99.90;;;;;;5052702;28;20525;-49
2023/08/13 05:41:47;;;;;;;6.00;3.23;;;17.20;99.90;;;;;;5052506;28;20956;-50
2023/08/13 05:44:14;;;;;;;7.70;3.00;;;17.30;99.90;;;;;;5051898;28;20514;-50
2023/08/13 05:46:40;;;;;;;5.90;3.53;;;17.30;99.90;;;;;;5052663;28;21029;-51
2023/08/13 05:49:07;;;;;;;6.37;2.87;;;17.30;99.90;;;;;;5050703;28;20880;-50
2023/08/13 05:51:33;;;;;;;6.23;3.10;;;17.30;99.90;;;;;;5052023;28;20537;-50
2023/08/13 05:54:00;;;;;;;9.37;3.37;;;17.30;99.90;;;;;;5051663;28;20482;-50
2023/08/13 05:56:26;;;;;;;7.67;3.23;;;17.30;99.90;;;;;;5052359;28;20560;-50
2023/08/13 05:58:54;;;;;;;5.77;3.13;;;17.40;99.90;;;;;;5052203;28;20484;-50
2023/08/13 06:01:21;;;;;;;4.33;2.73;;;17.40;99.90;;;;;;5052585;28;20474;-51
2023/08/13 06:03:47;;;;;;;17.10;3.13;;;17.40;99.90;;;;;;5050343;28;20809;-50
2023/08/13 06:06:15;;;;;;;4.30;2.80;;;17.40;99.90;;;;;;5051333;28;20946;-50
2023/08/13 06:08:42;;;;;;;7.77;3.43;;;17.40;99.90;;;;;;5052157;28;20495;-50
2023/08/13 06:11:08;;;;;;;7.00;3.37;;;17.50;99.90;;;;;;5058308;28;20441;-51
2023/08/13 06:13:38;;;;;;;7.00;3.03;;;17.60;99.90;;;;;;5071586;28;20473;-50
2023/08/13 06:16:06;;;;;;;3.50;2.90;;;17.60;99.90;;;;;;5052825;28;20462;-50
2023/08/13 06:18:33;;;;;;;6.90;2.80;;;17.70;99.90;;;;;;5051179;28;20523;-50
2023/08/13 06:20:59;;;;;;;6.07;3.00;;;17.60;99.90;;;;;;5052064;28;20469;-51
2023/08/13 06:23:26;;;;;;;9.63;2.80;;;17.70;99.40;;;;;;5051170;28;20541;-49
2023/08/13 06:25:53;;;;;;;10.80;3.70;;;17.70;99.40;;;;;;5051286;28;20521;-50
2023/08/13 06:28:19;;;;;;;8.63;2.63;;;17.70;99.20;;;;;;5051833;28;20469;-50
2023/08/13 06:30:46;;;;;;;6.30;2.70;;;17.80;98.90;;;;;;5052171;28;20857;-50
2023/08/13 06:33:14;;;;;;;4.73;2.67;;;17.80;98.60;;;;;;5046891;28;20458;-51
2023/08/13 06:35:44;;;;;;;9.33;2.97;;;18.00;98.30;;;;;;5051150;28;20454;-50
2023/08/13 06:38:11;;;;;;;3.20;2.20;;;18.10;98.00;;;;;;5052199;28;20470;-50
2023/08/13 06:40:37;;;;;;;11.57;2.80;;;18.10;99.90;;;;;;5050880;28;20438;-51
2023/08/13 06:43:03;;;;;;;5.10;2.30;;;18.10;99.90;;;;;;5051613;28;20520;-50
2023/08/13 06:45:29;;;;;;;9.97;2.57;;;18.20;99.90;;;;;;5050680;28;20891;-50
2023/08/13 06:47:57;;;;;;;6.40;2.83;;;18.30;99.90;;;;;;5054369;28;20206;-50
2023/08/13 06:50:25;;;;;;;4.63;2.27;;;18.40;99.90;;;;;;5056425;28;20453;-51
2023/08/13 06:52:52;;;;;;;9.10;3.23;;;18.50;99.90;;;;;;5054532;28;20497;-51
2023/08/13 06:55:18;;;;;;;5.83;2.40;;;18.60;99.90;;;;;;5054008;28;20510;-50
2023/08/13 06:57:46;;;;;;;9.20;2.60;;;18.70;99.90;;;;;;5050922;28;20458;-50
2023/08/13 07:00:14;;;;;;;8.50;3.10;;;18.70;99.90;;;;;;5048165;28;20547;-51
2023/08/13 07:02:41;;;;;;;12.67;2.57;;;18.80;99.90;;;;;;5050890;28;20525;-49
2023/08/13 07:05:11;;;;;;;10.00;3.17;;;18.90;88.20;;;;;;5050059;28;20509;-51
2023/08/13 07:07:39;;;;;;;6.00;2.40;;;19.00;43.60;;;;;;5051316;28;20446;-51
2023/08/13 07:10:07;;;;;;;8.20;2.90;;;19.10;69.80;;;;;;5051328;28;20537;-50
2023/08/13 07:12:33;;;;;;;9.53;2.47;;;19.30;40.00;;;;;;5051841;28;20521;-50
2023/08/13 07:15:03;;;;;;;6.07;2.13;;;19.30;47.00;;;;;;5049605;28;20533;-51
2023/08/13 07:17:30;;;;;;;5.80;2.67;;;19.50;46.30;;;;;;5051574;28;20445;-51
2023/08/13 07:19:56;;;;;;;13.93;2.77;;;19.60;52.30;;;;;;5051485;28;20537;-50
2023/08/13 07:22:23;;;;;;;8.30;2.50;;;19.70;77.40;;;;;;5051596;28;20528;-50
2023/08/13 07:24:51;;;;;;;12.13;2.40;;;19.70;76.70;;;;;;5050276;28;20577;-50
2023/08/13 07:27:17;;;;;;;7.73;2.80;;;19.70;99.00;;;;;;5049992;28;20568;-50
2023/08/13 07:29:44;;;;;;;9.10;2.50;;;19.70;85.80;;;;;;5052867;28;20497;-51
2023/08/13 07:32:10;;;;;;;5.73;2.73;;;19.80;91.20;;;;;;5054195;28;20541;-50
2023/08/13 07:34:37;;;;;;;6.13;2.23;;;19.80;92.50;;;;;;5055273;28;20544;-50
2023/08/13 07:37:03;;;;;;;9.30;2.10;;;19.80;87.30;;;;;;5054745;28;20924;-51
2023/08/13 07:39:31;;;;;;;7.37;3.00;;;19.90;99.90;;;;;;5055139;28;20469;-50
2023/08/13 07:41:59;;;;;;;10.00;2.80;;;19.90;99.90;;;;;;5055486;28;20940;-50
2023/08/13 07:44:26;;;;;;;12.57;3.90;;;20.00;99.90;;;;;;5054069;28;20997;-50
2023/08/13 07:46:54;;;;;;;8.13;2.80;;;20.00;99.90;;;;;;5051899;28;20485;-50
2023/08/13 07:49:21;;;;;;;9.27;3.03;;;20.10;99.90;;;;;;5054747;28;20438;-50
2023/08/13 07:51:47;;;;;;;8.57;3.27;;;20.10;99.90;;;;;;5054655;28;20545;-51
2023/08/13 07:54:14;;;;;;;8.30;2.43;;;20.20;99.90;;;;;;5054271;28;20544;-50
2023/08/13 07:56:40;;;;;;;9.23;3.23;;;20.30;99.90;;;;;;5054542;28;20485;-50
2023/08/13 07:59:09;;;;;;;10.83;2.50;;;20.30;99.90;;;;;;5054696;28;20545;-51
2023/08/13 08:01:36;;;;;;;10.43;3.20;;;20.50;99.90;;;;;;5053323;28;20552;-51
2023/08/13 08:04:03;;;;;;;8.00;3.07;;;20.60;99.90;;;;;;5052934;28;20440;-50
2023/08/13 08:06:30;;;;;;;7.77;2.80;;;20.70;99.90;;;;;;5054364;28;20513;-50
2023/08/13 08:08:56;;;;;;;18.43;2.80;;;20.90;99.90;;;;;;5054353;28;20985;-50
2023/08/13 08:11:23;;;;;;;10.13;3.87;;;20.90;99.90;;;;;;5054657;28;20445;-50
2023/08/13 08:13:49;;;;;;;9.43;2.70;;;21.00;99.90;;;;;;5053879;28;20482;-50
2023/08/13 08:16:17;;;;;;;9.87;3.07;;;21.10;99.90;;;;;;5053394;28;20523;-50
2023/08/13 08:18:44;;;;;;;7.67;2.90;;;21.20;99.90;;;;;;5054057;28;20513;-51
2023/08/13 08:21:10;;;;;;;8.93;2.57;;;21.30;99.90;;;;;;5052087;28;20530;-50
2023/08/13 08:23:37;;;;;;;11.17;2.67;;;21.40;99.90;;;;;;5033902;28;20522;-50
2023/08/13 08:26:03;;;;;;;14.73;2.87;;;21.50;99.90;;;;;;5046053;28;20525;-50
2023/08/13 08:28:30;;;;;;;4.23;1.97;;;21.70;99.90;;;;;;5054215;28;20477;-51
2023/08/13 08:30:56;;;;;;;10.70;2.90;;;21.80;99.90;;;;;;5052507;28;20572;-50
2023/08/13 08:33:24;;;;;;;8.10;2.50;;;21.80;99.90;;;;;;5053296;28;20537;-51
2023/08/13 08:35:51;;;;;;;7.73;2.97;;;21.90;84.20;;;;;;5053143;28;20545;-50
2023/08/13 08:38:17;;;;;;;5.60;2.67;;;22.00;79.00;;;;;;5053115;28;20537;-51
2023/08/13 08:40:47;;;;;;;7.53;2.43;;;22.10;99.90;;;;;;5054057;28;20485;-50
2023/08/13 08:43:14;;;;;;;9.63;2.70;;;22.10;99.90;;;;;;5053779;28;20450;-50
2023/08/13 08:45:41;;;;;;;7.17;2.57;;;22.20;30.90;;;;;;5052339;28;20909;-50
2023/08/13 08:48:08;;;;;;;9.33;2.70;;;22.30;79.20;;;;;;5045424;28;20525;-49
2023/08/13 08:50:36;;;;;;;4.03;2.50;;;22.30;28.50;;;;;;5052952;28;20892;-50
2023/08/13 08:53:03;;;;;;;6.83;2.03;;;22.40;28.60;;;;;;5053736;28;20446;-50
2023/08/13 08:55:30;;;;;;;6.27;2.30;;;22.60;24.40;;;;;;5053159;28;20972;-51
2023/08/13 08:57:57;;;;;;;4.13;2.47;;;22.60;21.60;;;;;;5053634;28;20469;-51
2023/08/13 09:00:24;;;;;;;9.07;2.17;;;22.70;78.10;;;;;;5052554;28;20501;-50
2023/08/13 09:02:51;;;;;;;5.87;2.23;;;22.80;72.20;;;;;;5053639;28;20525;-50
2023/08/13 09:05:17;;;;;;;7.90;2.80;;;22.80;40.10;;;;;;5052705;28;20486;-49
2023/08/13 09:07:45;;;;;;;5.70;2.50;;;22.90;32.60;;;;;;5053902;28;20525;-51
2023/08/13 09:10:12;;;;;;;8.77;2.57;;;22.90;45.70;;;;;;5053466;28;20477;-52
2023/08/13 09:12:41;;;;;;;5.37;2.23;;;23.00;39.40;;;;;;5052699;28;20533;-52
2023/08/13 09:15:09;;;;;;;8.87;2.53;;;23.20;37.30;;;;;;5051179;28;20490;-53
2023/08/13 09:17:36;;;;;;;10.13;2.70;;;23.30;58.80;;;;;;5053397;28;20473;-52
2023/08/13 09:20:10;;;;;;;8.43;2.73;;;23.50;57.50;;;;;;5053220;28;20536;-52
2023/08/13 09:22:36;;;;;;;10.43;3.77;;;23.50;67.60;;;;;;5056269;28;20477;-52
2023/08/13 09:25:05;;;;;;;11.23;3.60;;;23.80;78.40;;;;;;5052273;28;20477;-52
2023/08/13 09:27:32;;;;;;;6.03;2.27;;;24.00;57.50;;;;;;5052860;28;20442;-53
2023/08/13 09:29:59;;;;;;;8.20;2.60;;;24.00;91.20;;;;;;5048779;28;20512;-52
2023/08/13 09:32:28;;;;;;;12.13;3.40;;;24.00;98.90;;;;;;5052436;28;20446;-53
2023/08/13 09:34:54;;;;;;;8.50;2.70;;;24.10;95.20;;;;;;5051779;28;21010;-52
2023/08/13 09:37:24;;;;;;;14.33;2.77;;;24.20;99.90;;;;;;5049768;28;20509;-53
2023/08/13 09:39:50;;;;;;;4.27;1.60;;;24.50;99.90;;;;;;5058258;28;20507;-54
2023/08/13 09:42:19;;;;;;;5.60;2.00;;;24.70;99.90;;;;;;5060938;28;20474;-52
2023/08/13 09:44:47;;;;;;;5.83;2.70;;;24.90;99.90;;;;;;5057751;28;20490;-53
2023/08/13 09:47:17;;;;;;;11.90;2.67;;;25.00;99.90;;;;;;5060085;28;20505;-56
2023/08/13 09:49:45;;;;;;;13.33;2.60;;;25.00;99.90;;;;;;5066065;28;20810;-51
2023/08/13 09:52:12;;;;;;;5.60;2.30;;;25.30;99.90;;;;;;5051289;28;20465;-53
2023/08/13 09:54:44;;;;;;;9.33;2.83;;;25.40;99.90;;;;;;5051334;28;20476;-53
2023/08/13 09:57:13;;;;;;;11.63;2.40;;;25.60;99.90;;;;;;5052414;28;20508;-58
2023/08/13 09:59:42;;;;;;;11.70;2.47;;;25.70;99.90;;;;;;5051429;28;20473;-52
2023/08/13 10:02:10;;;;;;;7.17;2.70;;;26.00;99.90;;;;;;5044390;28;20466;-52
2023/08/13 10:04:37;;;;;;;7.47;2.50;;;26.50;99.90;;;;;;5050566;28;20438;-53
2023/08/13 10:07:05;;;;;;;6.23;2.47;;;26.30;99.90;;;;;;5051655;28;20602;-54
2023/08/13 10:09:31;;;;;;;4.07;1.97;;;26.20;99.90;;;;;;5052291;28;20477;-53
2023/08/13 10:11:59;;;;;;;4.50;2.40;;;26.60;99.90;;;;;;5051675;28;20873;-54
2023/08/13 10:14:26;;;;;;;6.07;2.80;;;26.80;99.90;;;;;;5050417;28;20477;-52
2023/08/13 10:16:54;;;;;;;6.57;2.37;;;26.60;99.90;;;;;;5051668;28;20493;-53
2023/08/13 10:19:28;;;;;;;6.40;2.80;;;25.90;99.90;;;;;;5051709;28;20470;-52
2023/08/13 10:21:56;;;;;;;8.40;2.20;;;26.60;99.90;;;;;;5050240;28;20541;-51
2023/08/13 10:24:24;;;;;;;15.60;2.83;;;26.50;99.90;;;;;;5050864;28;20445;-53
2023/08/13 10:26:50;;;;;;;4.53;2.00;;;26.50;99.90;;;;;;5051856;28;20490;-53
2023/08/13 10:29:18;;;;;;;4.60;2.40;;;26.90;99.90;;;;;;5043704;28;20545;-52
2023/08/13 10:31:49;;;;;;;3.93;1.60;;;26.80;99.90;;;;;;5050078;28;21001;-52
2023/08/13 10:34:18;;;;;;;9.40;3.00;;;26.50;99.90;;;;;;5050787;28;20472;-53
2023/08/13 10:36:49;;;;;;;5.10;2.43;;;26.60;99.90;;;;;;5051798;28;20464;-53
2023/08/13 10:39:33;;;;;;;4.50;2.00;;;26.20;99.90;;;;;;5051841;28;20470;-51
2023/08/13 10:42:00;;;;;;;7.33;2.40;;;25.90;99.90;;;;;;5051598;28;20902;-51
2023/08/13 10:44:28;;;;;;;9.60;2.20;;;25.80;99.90;;;;;;5050362;28;20480;-52
2023/08/13 10:46:55;;;;;;;3.93;2.37;;;26.00;99.90;;;;;;5051124;28;21041;-50
2023/08/13 10:49:23;;;;;;;4.00;2.10;;;26.60;99.90;;;;;;5051795;28;20559;-53
2023/08/13 10:51:49;;;;;;;7.93;2.30;;;26.60;99.90;;;;;;5051775;28;20525;-52
2023/08/13 10:54:16;;;;;;;4.50;1.93;;;26.90;99.90;;;;;;5050159;28;20516;-51
2023/08/13 10:56:43;;;;;;;3.93;2.37;;;26.80;99.90;;;;;;5051561;28;20934;-52
2023/08/13 10:59:11;;;;;;;7.40;2.83;;;27.90;99.90;;;;;;5051495;28;20445;-51
2023/08/13 11:02:09;;;;;;;7.00;2.30;;;28.30;99.90;;;;;;5050697;28;20512;-52
2023/08/13 11:04:38;;;;;;;10.53;3.00;;;27.80;99.90;;;;;;5053952;28;20549;-52
2023/08/13 11:07:04;;;;;;;4.97;2.20;;;27.00;99.90;;;;;;5055246;28;20570;-53
2023/08/13 11:09:31;;;;;;;7.40;2.13;;;26.60;99.90;;;;;;5055489;28;20448;-52
2023/08/13 11:11:59;;;;;;;6.40;2.47;;;26.80;99.90;;;;;;5054682;28;21034;-51
2023/08/13 11:14:26;;;;;;;6.70;2.80;;;27.90;99.90;;;;;;5054877;28;20616;-52
2023/08/13 11:16:53;;;;;;;7.17;2.57;;;28.20;99.90;;;;;;5054005;28;20477;-51
2023/08/13 11:19:20;;;;;;;9.03;2.80;;;28.50;99.90;;;;;;5055205;28;21008;-52
2023/08/13 11:21:49;;;;;;;8.70;2.37;;;28.10;99.90;;;;;;5055267;28;20528;-54
2023/08/13 11:24:16;;;;;;;6.53;2.53;;;27.60;99.90;;;;;;5053828;28;20941;-52
2023/08/13 11:26:42;;;;;;;5.73;1.90;;;27.00;99.90;;;;;;5055287;28;20572;-51
2023/08/13 11:29:09;;;;;;;9.57;1.90;;;26.80;99.90;;;;;;5053785;28;20488;-53
2023/08/13 11:31:38;;;;;;;3.20;2.00;;;26.60;99.90;;;;;;5054273;28;20500;-51
2023/08/13 11:34:05;;;;;;;6.10;2.20;;;26.10;99.90;;;;;;5054204;28;20508;-51
2023/08/13 11:36:31;;;;;;;3.53;2.07;;;26.00;99.90;;;;;;5046861;28;20475;-52
2023/08/13 11:38:59;;;;;;;5.90;2.57;;;25.80;99.90;;;;;;5043367;28;20519;-52
2023/08/13 11:41:26;;;;;;;6.03;2.00;;;25.50;99.90;;;;;;5044339;28;20499;-54
2023/08/13 11:43:53;;;;;;;6.87;2.63;;;25.10;99.90;;;;;;5054150;28;20974;-51
2023/08/13 11:46:20;;;;;;;5.47;2.43;;;24.90;99.90;;;;;;5053323;28;20859;-51
2023/08/13 11:48:47;;;;;;;4.50;2.10;;;24.70;99.90;;;;;;5059799;28;20471;-52
2023/08/13 11:51:15;;;;;;;4.60;2.30;;;24.60;99.90;;;;;;5052273;28;20835;-51
2023/08/13 11:53:42;;;;;;;8.80;3.03;;;24.90;99.90;;;;;;5049786;28;20523;-51
2023/08/13 11:56:11;;;;;;;11.80;2.53;;;25.00;99.90;;;;;;5045836;28;20979;-52
2023/08/13 11:58:39;;;;;;;5.80;3.00;;;25.00;99.90;;;;;;5054321;28;20517;-51
2023/08/13 12:01:05;;;;;;;5.33;2.50;;;24.90;99.90;;;;;;5053632;28;20886;-52
2023/08/13 12:03:35;;;;;;;4.90;2.30;;;25.20;99.90;;;;;;5050359;28;20503;-51
2023/08/13 12:06:02;;;;;;;5.87;2.67;;;25.50;99.90;;;;;;5054277;28;20497;-51
2023/08/13 12:08:29;;;;;;;5.60;2.60;;;25.80;99.90;;;;;;5054627;28;20881;-51
2023/08/13 12:10:58;;;;;;;2.67;2.20;;;26.00;99.90;;;;;;5054689;28;20446;-52
2023/08/13 12:13:26;;;;;;;8.87;2.27;;;26.00;99.90;;;;;;5047304;28;20496;-53
2023/08/13 12:15:52;;;;;;;7.97;2.50;;;26.10;99.90;;;;;;5050595;28;20486;-52
2023/08/13 12:18:19;;;;;;;5.13;2.33;;;26.30;99.90;;;;;;5053634;28;20477;-51
2023/08/13 12:20:45;;;;;;;6.60;2.27;;;26.30;99.90;;;;;;5053812;28;20530;-53
2023/08/13 12:23:12;;;;;;;9.87;2.57;;;26.20;99.90;;;;;;5060148;28;20490;-51
2023/08/13 12:25:38;;;;;;;5.63;2.10;;;26.30;99.90;;;;;;5049700;28;20544;-52
2023/08/13 12:28:06;;;;;;;3.17;2.23;;;26.00;99.90;;;;;;5053970;28;20572;-53
2023/08/13 12:30:33;;;;;;;4.33;2.37;;;25.90;99.90;;;;;;5056998;28;20563;-52
2023/08/13 12:33:00;;;;;;;3.80;2.30;;;25.70;99.90;;;;;;5053779;28;20502;-52
2023/08/13 12:35:27;;;;;;;5.43;2.73;;;25.50;99.90;;;;;;5044959;28;20461;-52
2023/08/13 12:37:53;;;;;;;10.03;2.50;;;25.40;99.90;;;;;;5054165;28;20830;-53
2023/08/13 12:40:21;;;;;;;8.70;2.33;;;25.30;99.90;;;;;;5056023;28;20505;-53
2023/08/13 12:42:48;;;;;;;6.43;2.87;;;25.50;99.90;;;;;;5053557;28;20609;-52
2023/08/13 12:45:15;;;;;;;5.50;2.37;;;25.80;99.90;;;;;;5049779;28;20896;-52